Tiempo atmosférico en la estación meteorológica de Figueres, Girona (47 m.)



Fecha
DESCASC
Temp. máxima en grados centígrados (hora)
DESCASC
Temp. mínima en grados centígrados (hora)
DESCASC
Temp. media en grados centígrados
DESCASC
Racha de viento máxima en m/sg (hora)
DESCASC
Velocidad máxima media en intervalos de 10 minutos(hora)
DESCASC
Precipitaciones diarias en mm
DESCASC
Precipitaciones de 00:00 a 06:00 en mm
DESCASC
Precipitaciones de 06:00 a 12:00 en mm
DESCASC
Precipitaciones de 12:00 a 18:00 en mm
DESCASC
Precipitaciones de 18:00 a 24:00 en mm
DESCASC
15-07-2018 32.3 (13:00) 21.1 (05:00) 26.7 8.61 (17:20) 3.61 (16:10) 0 0 0 0 0
14-07-2018 33.2 (14:10) 22.7 (07:10) 28 7.5 (16:20) 3.89 (16:00) 0 0 0 0 0
13-07-2018 32.2 (14:10) 19 (07:00) 25.6 6.11 (15:10) 3.33 (15:50) 0 0 0 0 0
12-07-2018 30.5 (14:10) 20.5 (00:00) 25.5 7.22 (15:50) 4.17 (15:20) 0 0 0 0 0
11-07-2018 30.7 (13:40) 22.6 (00:00) 26.7 7.78 (16:40) 3.33 (16:00) 0.2 0.2 0 0 0
10-07-2018 32.1 (13:00) 20.9 (00:00) 26.5 7.5 (15:10) 3.89 (14:40) 0 0 0 0 0
09-07-2018 33.9 (13:20) 21.1 (00:00) 27.5 8.61 (15:50) 4.44 (14:10) 0 0 0 0 0
08-07-2018 33.9 (13:00) 19.8 (07:00) 26.9 7.78 (11:50) 3.61 (11:50) 0 0 0 0 0
07-07-2018 32.7 (14:40) 20.5 (00:00) 26.6 8.33 (14:50) 3.61 (12:40) 0 0 0 0 0
06-07-2018 30.8 (16:50) 20.1 (00:00) 25.4 11.94 (08:20) 4.72 (07:10) 0.8 0.8 0 0 0
05-07-2018 30.2 (14:20) 20.4 (06:10) 25.3 15 (00:20) 6.67 (00:50) 0.6 0 0 0 0.6
04-07-2018 34.5 (17:20) 20.9 (07:00) 27.7 13.06 (23:59) 5.28 (23:59) 0 0 0 0 0
03-07-2018 34.7 (18:20) 21.3 (06:20) 28 9.17 (19:00) 4.72 (19:00) 0 0 0 0 0
02-07-2018 31 (14:50) 20 (04:30) 25.5 7.5 (16:40) 3.89 (16:20) 0 0 0 0 0
01-07-2018 30.9 (14:00) 17.6 (00:00) 24.3 9.72 (16:30) 3.61 (15:20) 0 0 0 0 0
30-06-2018 31.2 (18:00) 18.8 (06:00) 25 8.89 (15:40) 3.89 (16:50) 0 0 0 0 0
29-06-2018 29.2 (12:50) 19.6 (00:00) 24.4 8.89 (17:20) 4.17 (15:00) 0 0 0 0 0
28-06-2018 30.9 (12:10) 21.7 (00:00) 26.3 7.78 (14:20) 3.89 (14:20) 0 0 0 0 0
27-06-2018 31.2 (12:30) 18.2 (00:00) 24.7 7.5 (16:00) 3.61 (15:50) 0 0 0 0 0
26-06-2018 28.6 (15:10) 19.1 (00:00) 23.9 7.5 (15:50) 3.89 (14:50) 0 0 0 0 0
25-06-2018 29.3 (12:40) 18.3 (00:00) 23.8 7.78 (13:40) 3.61 (14:00) 0 0 0 0 0
24-06-2018 28.8 (12:20) 16.8 (00:00) 22.8 8.06 (14:50) 3.33 (16:00) 0 0 0 0 0
23-06-2018 29.1 (18:10) 21.6 (00:00) 25.4 8.06 (01:50) 3.89 (02:30) 0 0 0 0 0
22-06-2018 31.1 (15:50) 23.6 (07:50) 27.4 11.94 (12:40) 6.39 (14:00) 0 0 0 0 0
21-06-2018 32.2 (14:10) 18 (00:00) 25.1 6.11 (14:50) 3.06 (14:40) 0 0 0 0 0
20-06-2018 30.7 (16:20) 18.6 (00:00) 24.7 7.22 (17:10) 3.33 (14:30) 0 0 0 0 0
19-06-2018 31.7 (17:20) 20.9 (00:00) 26.3 15.28 (00:20) 6.11 (00:20) 0 0 0 0 0
18-06-2018 29.7 (16:10) 18.6 (00:00) 24.2 14.44 (23:00) 6.67 (14:10) 0 0 0 0 0
17-06-2018 27.4 (15:20) 18.9 (00:00) 23.1 12.5 (22:50) 5.83 (17:00) 0 0 0 0 0

Gráficas

Temp. máximas Temp. mínimas Temp. medias Precipitaciones Rachas de viento máximas Velocidades máximas media en intervalos de 10 minutos

Datos horarios

Fecha y hora oficial Temperatura (ºC) Velocidad del viento (km/h) Dirección del viento Racha (km/h) Dirección de racha Precipitación (mm) Presión (hPa) Tendencia (hPa) Humedad (%)
2018-07-16 23:00:00 25 10 Norte 32 Norte 0 -- -- 49
2018-07-16 22:00:00 25 19 Nordeste 42 Norte 0 -- -- 51
2018-07-16 21:00:00 25.6 15 Nordeste 39 Nordeste 0 -- -- 47
2018-07-16 20:00:00 27.3 14 Nordeste 37 Nordeste 0 -- -- 46
2018-07-16 19:00:00 28.4 14 Nordeste 36 Norte 0 -- -- 45
2018-07-16 18:00:00 29.7 15 Nordeste 43 Norte 0 -- -- 40
2018-07-16 17:00:00 28.2 17 Nordeste 37 Nordeste 0 -- -- 44
2018-07-16 16:00:00 27.7 10 Norte 38 Nordeste 0 -- -- 44
2018-07-16 15:00:00 24.8 7 Nordeste 19 Norte 0 -- -- 62
2018-07-16 14:00:00 20.2 4 Sudoeste 24 Oeste 0.8 -- -- 91
2018-07-16 13:00:00 19.6 5 Norte 27 Nordeste 2 -- -- 82
2018-07-16 12:00:00 20.1 13 Nordeste 44 Norte 9.2 -- -- 79
2018-07-16 11:00:00 21.1 11 Norte 45 Nordeste 1.8 -- -- 82
2018-07-16 10:00:00 25.3 7 Nordeste 19 Este 0 -- -- 67
2018-07-16 09:00:00 25.6 6 Nordeste 14 Norte 0 -- -- 65
2018-07-16 08:00:00 24.6 2 Norte 5 Sudeste 0 -- -- 71
2018-07-16 07:00:00 24.2 3 Este 8 Sudeste 0 -- -- 71
2018-07-16 06:00:00 23.8 3 Sudoeste 6 Sur 0 -- -- 82
2018-07-16 05:00:00 24.1 4 Sur 9 Sur 0 -- -- 81
2018-07-16 04:00:00 24.4 0 Calma 12 Este 0 -- -- 79
2018-07-16 03:00:00 24.9 3 Este 14 Norte 0 -- -- 80
2018-07-16 02:00:00 24.6 7 Nordeste 14 Nordeste 0 -- -- 84
2018-07-16 01:00:00 25.4 3 Norte 10 Noroeste 0 -- -- 79
2018-07-16 00:00:00 25.4 3 Oeste 5 Sudoeste 0 -- -- 83
2018-07-15 23:00:00 25.8 4 Este 11 Este 0 -- -- 82
2018-07-15 22:00:00 26.2 5 Nordeste 14 Este 0 -- -- 81
2018-07-15 21:00:00 27.6 3 Este 14 Nordeste 0 -- -- 75
2018-07-15 20:00:00 28.9 7 Este 21 Sudeste 0 -- -- 69
2018-07-15 19:00:00 30 10 Este 21 Este 0 -- -- 62
2018-07-15 18:00:00 30.5 10 Sudeste 31 Sudeste 0 -- -- 61
2018-07-15 17:00:00 29.9 12 Sudeste 29 Sudeste 0 -- -- 66
2018-07-15 16:00:00 31.3 10 Sudeste 27 Sudeste 0 -- -- 50
2018-07-15 15:00:00 31.7 12 Sur 25 Sudeste 0 -- -- 45
2018-07-15 14:00:00 31.9 12 Sudeste 23 Sudeste 0 -- -- 47
2018-07-15 13:00:00 32.3 8 Sudoeste 17 Sudeste 0 -- -- 45
2018-07-15 12:00:00 30.9 6 Sudeste 13 Sudeste 0 -- -- 47
2018-07-15 11:00:00 29.4 2 Oeste 10 Oeste 0 -- -- 52
2018-07-15 10:00:00 27.5 4 Oeste 10 Oeste 0 -- -- 58
2018-07-15 09:00:00 25.8 3 Sudoeste 9 Este 0 -- -- 62
2018-07-15 08:00:00 22.2 5 Nordeste 10 Este 0 -- -- 74
2018-07-15 07:00:00 21.4 5 Noroeste 13 Oeste 0 -- -- 74
2018-07-15 06:00:00 21.6 3 Oeste 9 Noroeste 0 -- -- 76
2018-07-15 05:00:00 21.1 5 Sudoeste 10 Sur 0 -- -- 78
2018-07-15 04:00:00 21.9 3 Nordeste 8 Nordeste 0 -- -- 78
2018-07-15 03:00:00 22.4 2 Oeste 6 Noroeste 0 -- -- 77
2018-07-15 02:00:00 23 0 Calma 8 Noroeste 0 -- -- 81
2018-07-15 01:00:00 23.9 0 Calma 4 Sudoeste 0 -- -- 82
2018-07-15 00:00:00 24.5 3 Noroeste 6 Nordeste 0 -- -- 81
2018-07-14 23:00:00 24.4 3 Este 6 Nordeste 0 -- -- 83
2018-07-14 22:00:00 24.9 4 Sudoeste 13 Sudeste 0 -- -- 80
2018-07-14 21:00:00 26 5 Sudeste 12 Este 0 -- -- 73
2018-07-14 20:00:00 27.7 6 Sudeste 16 Sudeste 0 -- -- 65
2018-07-14 19:00:00 29 7 Sudeste 21 Sudeste 0 -- -- 60
2018-07-14 18:00:00 30.3 9 Sudeste 22 Sudeste 0 -- -- 55
2018-07-14 17:00:00 31.1 11 Sudeste 27 Sur 0 -- -- 50
2018-07-14 16:00:00 31.7 14 Sur 26 Sur 0 -- -- 39
2018-07-14 15:00:00 32.7 10 Sur 24 Sur 0 -- -- 40
2018-07-14 14:00:00 33 8 Sudeste 19 Sur 0 -- -- 42
2018-07-14 13:00:00 31.9 5 Sudeste 17 Sudeste 0 -- -- 44
2018-07-14 12:00:00 31.1 6 Sur 17 Sur 0 -- -- 49
2018-07-14 11:00:00 30.7 4 Sur 12 Sudeste 0 -- -- 47
2018-07-14 10:00:00 29.7 3 Sur 8 Sudeste 0 -- -- 47
2018-07-14 09:00:00 26.4 4 Sur 6 Sur 0 -- -- 60
2018-07-14 08:00:00 23.5 0 Calma 3 Sur 0 -- -- 70
2018-07-14 07:00:00 22.9 0 Calma 4 Sudoeste 0 -- -- 70
2018-07-14 06:00:00 23 0 Calma 12 Nordeste 0 -- -- 72
2018-07-14 05:00:00 23.2 2 Norte 7 Sudoeste 0 -- -- 69
2018-07-14 04:00:00 23.6 0 Calma 6 Nordeste 0 -- -- 68
2018-07-14 03:00:00 24.3 5 Nordeste 9 Nordeste 0 -- -- 64
2018-07-14 02:00:00 23.9 5 Norte 11 Norte 0 -- -- 67
2018-07-14 01:00:00 24.5 0 Calma 8 Noroeste 0 -- -- 63
2018-07-14 00:00:00 24.8 4 Oeste 8 Noroeste 0 -- -- 63
2018-07-13 23:00:00 25.8 3 Oeste 8 Sudoeste 0 -- -- 60
2018-07-13 22:00:00 26.2 2 Norte 7 Norte 0 -- -- 55
2018-07-13 21:00:00 26.1 3 Sudeste 11 Sudeste 0 -- -- 59
2018-07-13 20:00:00 26.9 5 Sudeste 12 Sur 0 -- -- 54
2018-07-13 19:00:00 28.1 6 Sur 21 Sur 0 -- -- 48
2018-07-13 18:00:00 29.8 9 Sur 18 Sur 0 -- -- 41
2018-07-13 17:00:00 29.1 8 Sudoeste 19 Sudoeste 0 -- -- 47
2018-07-13 16:00:00 29.8 10 Sur 22 Sur 0 -- -- 42
2018-07-13 15:00:00 31.9 10 Sur 21 Sur 0 -- -- 39
2018-07-13 14:00:00 31.9 8 Sudeste 20 Sudeste 0 -- -- 41
2018-07-13 13:00:00 31.3 7 Sudeste 17 Sudeste 0 -- -- 43
2018-07-13 12:00:00 30.6 5 Sudeste 14 Este 0 -- -- 45
2018-07-13 11:00:00 29.7 5 Este 14 Este 0 -- -- 45
2018-07-13 10:00:00 27.3 0 Calma 6 Sur 0 -- -- 51
2018-07-13 09:00:00 24.4 0 Calma 8 Este 0 -- -- 62
2018-07-13 08:00:00 21.2 0 Calma 13 Noroeste 0 -- -- 71
2018-07-13 07:00:00 19 5 Noroeste 10 Oeste 0 -- -- 78
2018-07-13 06:00:00 19.7 0 Calma 10 Noroeste 0 -- -- 76
2018-07-13 05:00:00 19.4 3 Oeste 7 Oeste 0 -- -- 76
2018-07-13 04:00:00 19.5 4 Noroeste 9 Noroeste 0 -- -- 76
2018-07-13 03:00:00 19.8 4 Noroeste 6 Norte 0 -- -- 76
2018-07-13 02:00:00 20.6 4 Noroeste 9 Noroeste 0 -- -- 73
2018-07-13 01:00:00 21 4 Sudoeste 8 Oeste 0 -- -- 75
2018-07-13 00:00:00 22.1 3 Oeste 6 Noroeste 0 -- -- 71
2018-07-12 23:00:00 23 3 Noroeste 9 Oeste 0 -- -- 67
2018-07-12 22:00:00 24.2 3 Norte 12 Norte 0 -- -- 62
2018-07-12 21:00:00 25.1 5 Nordeste 15 Este 0 -- -- 64
2018-07-12 20:00:00 27.1 3 Norte 13 Nordeste 0 -- -- 54
2018-07-12 19:00:00 26.5 7 Nordeste 17 Norte 0 -- -- 55
2018-07-12 18:00:00 24.9 7 Norte 24 Noroeste 0 -- -- 63
2018-07-12 17:00:00 27.2 6 Norte 23 Noroeste 0 -- -- 56
2018-07-12 16:00:00 29.2 11 Sur 26 Sudeste 0 -- -- 47
2018-07-12 15:00:00 29.9 13 Sur 24 Sur 0 -- -- 46
2018-07-12 14:00:00 30.3 10 Sur 20 Sur 0 -- -- 46
2018-07-12 13:00:00 29.8 6 Este 13 Sudeste 0 -- -- 43
2018-07-12 12:00:00 28.3 6 Sudeste 14 Sudeste 0 -- -- 46
2018-07-12 11:00:00 27.3 6 Sudeste 14 Sudeste 0 -- -- 50
2018-07-12 10:00:00 25.9 5 Este 14 Este 0 -- -- 54
2018-07-12 09:00:00 23.9 3 Nordeste 9 Norte 0 -- -- 60
2018-07-12 08:00:00 22.8 4 Nordeste 9 Este 0 -- -- 68
2018-07-12 07:00:00 21.4 2 Nordeste 7 Norte 0 -- -- 75
2018-07-12 06:00:00 20.9 3 Este 10 Nordeste 0 -- -- 78
2018-07-12 05:00:00 20.5 3 Noroeste 12 Oeste 0 -- -- 77
2018-07-12 04:00:00 21.1 3 Sudoeste 8 Sur 0 -- -- 80
2018-07-12 03:00:00 22.1 2 Norte 9 Este 0 -- -- 79
2018-07-12 02:00:00 22.6 3 Norte 13 Noroeste 0 -- -- 78
2018-07-12 01:00:00 23.2 4 Noroeste 15 Sudoeste 0 -- -- 75
2018-07-12 00:00:00 24.4 4 Noroeste 12 Noroeste 0 -- -- 73
2018-07-11 23:00:00 25.1 4 Noroeste 7 Norte 0 -- -- 71
2018-07-11 22:00:00 25.5 3 Nordeste 10 Nordeste 0 -- -- 71
2018-07-11 21:00:00 25.7 3 Nordeste 8 Este 0 -- -- 70
2018-07-11 20:00:00 25.9 4 Este 15 Este 0 -- -- 70
2018-07-11 19:00:00 26.8 6 Sudeste 17 Sudeste 0 -- -- 66
2018-07-11 18:00:00 27.6 8 Sudeste 22 Sur 0 -- -- 61
2018-07-11 17:00:00 28.9 9 Sudeste 28 Este 0 -- -- 60
2018-07-11 16:00:00 29.4 12 Sur 26 Sur 0 -- -- 51
2018-07-11 15:00:00 30.3 10 Sudeste 23 Sudeste 0 -- -- 51
2018-07-11 14:00:00 30.6 7 Sur 20 Sudeste 0 -- -- 49
2018-07-11 13:00:00 30.4 5 Nordeste 16 Nordeste 0 -- -- 45
2018-07-11 12:00:00 28.7 5 Noroeste 14 Oeste 0 -- -- 52
2018-07-11 11:00:00 28.7 7 Noroeste 18 Oeste 0 -- -- 52
2018-07-11 10:00:00 27.1 7 Norte 27 Norte 0 -- -- 50
2018-07-11 09:00:00 26.4 8 Norte 24 Norte 0 -- -- 51
2018-07-11 08:00:00 25.2 6 Norte 22 Norte 0 -- -- 54
2018-07-11 07:00:00 24.7 8 Norte 24 Nordeste 0 -- -- 56
2018-07-11 06:00:00 23 4 Norte 10 Noroeste 0 -- -- 67
2018-07-11 05:00:00 22.7 5 Oeste 12 Oeste 0 -- -- 82
2018-07-11 04:00:00 23.4 4 Oeste 12 Oeste 0.2 -- -- 80
2018-07-11 03:00:00 24.8 4 Oeste 9 Oeste 0 -- -- 68
2018-07-11 02:00:00 25.5 0 Calma 12 Este 0 -- -- 59
2018-07-11 01:00:00 26.4 3 Nordeste 18 Nordeste 0 -- -- 56
2018-07-11 00:00:00 26.7 3 Sudoeste 7 Sudoeste 0 -- -- 63
2018-07-10 23:00:00 26.8 3 Sudoeste 8 Sudoeste 0 -- -- 68
2018-07-10 22:00:00 27.4 3 Sur 9 Sur 0 -- -- 66
2018-07-10 21:00:00 28.7 4 Este 11 Sudeste 0 -- -- 54
2018-07-10 20:00:00 29.5 5 Sudeste 14 Sur 0 -- -- 48
2018-07-10 19:00:00 30.7 9 Sur 19 Sur 0 -- -- 44
2018-07-10 18:00:00 31.7 8 Sudeste 22 Sur 0 -- -- 42
2018-07-10 17:00:00 31.7 10 Sur 24 Sur 0 -- -- 43
2018-07-10 16:00:00 32 10 Sur 27 Sur 0 -- -- 43
2018-07-10 15:00:00 31.9 12 Sur 25 Sudeste 0 -- -- 46
2018-07-10 14:00:00 31.9 10 Sur 24 Sudeste 0 -- -- 47
2018-07-10 13:00:00 32.1 8 Sudeste 20 Sur 0 -- -- 45
2018-07-10 12:00:00 31 9 Sudeste 19 Este 0 -- -- 47
2018-07-10 11:00:00 30.6 5 Sur 12 Sur 0 -- -- 45
2018-07-10 10:00:00 29.1 3 Sur 9 Oeste 0 -- -- 48
2018-07-10 09:00:00 25.7 4 Oeste 11 Noroeste 0 -- -- 60
2018-07-10 08:00:00 22.5 6 Oeste 11 Noroeste 0 -- -- 69
2018-07-10 07:00:00 21 5 Oeste 13 Noroeste 0 -- -- 72
2018-07-10 06:00:00 21.2 6 Noroeste 13 Oeste 0 -- -- 71
2018-07-10 05:00:00 21.6 6 Noroeste 13 Noroeste 0 -- -- 72
2018-07-10 04:00:00 22 6 Noroeste 12 Noroeste 0 -- -- 71
2018-07-10 03:00:00 22.4 7 Noroeste 15 Oeste 0 -- -- 71
2018-07-10 02:00:00 23.2 7 Oeste 13 Oeste 0 -- -- 67
2018-07-10 01:00:00 24.3 4 Noroeste 15 Oeste 0 -- -- 64
2018-07-10 00:00:00 25.2 4 Norte 16 Oeste 0 -- -- 60
2018-07-09 23:00:00 25.4 5 Oeste 12 Noroeste 0 -- -- 64
2018-07-09 22:00:00 26.3 4 Noroeste 16 Oeste 0 -- -- 63
2018-07-09 21:00:00 28.2 3 Sudoeste 12 Sudoeste 0 -- -- 58
2018-07-09 20:00:00 29.8 5 Sudoeste 15 Oeste 0 -- -- 48
2018-07-09 19:00:00 30.7 8 Sudoeste 19 Sur 0 -- -- 41
2018-07-09 18:00:00 31.6 9 Sudoeste 27 Sur 0 -- -- 38
2018-07-09 17:00:00 31.4 10 Sur 27 Sur 0 -- -- 38
2018-07-09 16:00:00 32.3 11 Sur 31 Sur 0 -- -- 37
2018-07-09 15:00:00 33.1 12 Sur 30 Sur 0 -- -- 36
2018-07-09 14:00:00 33.7 10 Sur 24 Sudoeste 0 -- -- 38
2018-07-09 13:00:00 33.8 4 Este 12 Oeste 0 -- -- 34
2018-07-09 12:00:00 33.2 8 Oeste 18 Sudoeste 0 -- -- 35
2018-07-09 11:00:00 32.2 5 Noroeste 19 Norte 0 -- -- 38
2018-07-09 10:00:00 30.3 5 Norte 15 Nordeste 0 -- -- 43
2018-07-09 09:00:00 28.5 7 Nordeste 16 Nordeste 0 -- -- 47
2018-07-09 08:00:00 23 3 Oeste 12 Oeste 0 -- -- 66
2018-07-09 07:00:00 21.4 3 Noroeste 13 Noroeste 0 -- -- 69
2018-07-09 06:00:00 21.5 6 Noroeste 10 Oeste 0 -- -- 69
2018-07-09 05:00:00 22.1 6 Noroeste 13 Noroeste 0 -- -- 69
2018-07-09 04:00:00 22.3 5 Noroeste 12 Noroeste 0 -- -- 68
2018-07-09 03:00:00 22.8 2 Norte 12 Oeste 0 -- -- 67
2018-07-09 02:00:00 23.7 3 Noroeste 13 Noroeste 0 -- -- 64
2018-07-09 01:00:00 23.7 6 Noroeste 13 Noroeste 0 -- -- 66
2018-07-09 00:00:00 24.6 6 Oeste 12 Noroeste 0 -- -- 67
2018-07-08 23:00:00 25.5 5 Noroeste 12 Oeste 0 -- -- 70
2018-07-08 22:00:00 27 3 Noroeste 10 Noroeste 0 -- -- 63
2018-07-08 21:00:00 28.7 4 Oeste 6 Sudoeste 0 -- -- 45
2018-07-08 20:00:00 29.1 3 Este 13 Nordeste 0 -- -- 43
2018-07-08 19:00:00 29.4 5 Nordeste 13 Sudeste 0 -- -- 42
2018-07-08 18:00:00 30.6 6 Sudeste 23 Sur 0 -- -- 40
2018-07-08 17:00:00 31.6 10 Sur 25 Sur 0 -- -- 39
2018-07-08 16:00:00 31.9 13 Sur 26 Sur 0 -- -- 41
2018-07-08 15:00:00 32.5 10 Sur 22 Sur 0 -- -- 43
2018-07-08 14:00:00 33.1 9 Sur 23 Sur 0 -- -- 43
2018-07-08 13:00:00 33.9 8 Nordeste 25 Norte 0 -- -- 35
2018-07-08 12:00:00 32.4 10 Nordeste 28 Nordeste 0 -- -- 39
2018-07-08 11:00:00 31.1 5 Oeste 10 Sudoeste 0 -- -- 42
2018-07-08 10:00:00 28.8 5 Oeste 10 Oeste 0 -- -- 47
2018-07-08 09:00:00 25.6 6 Noroeste 11 Oeste 0 -- -- 56
2018-07-08 08:00:00 22.2 5 Noroeste 13 Noroeste 0 -- -- 67
2018-07-08 07:00:00 19.8 7 Noroeste 13 Noroeste 0 -- -- 72
2018-07-08 06:00:00 20.6 6 Noroeste 13 Noroeste 0 -- -- 68
2018-07-08 05:00:00 20.2 6 Noroeste 15 Noroeste 0 -- -- 72
2018-07-08 04:00:00 20.5 7 Noroeste 13 Oeste 0 -- -- 71
2018-07-08 03:00:00 20.8 8 Noroeste 15 Noroeste 0 -- -- 72
2018-07-08 02:00:00 21.6 7 Noroeste 17 Oeste 0 -- -- 75
2018-07-08 01:00:00 22.2 9 Noroeste 18 Noroeste 0 -- -- 74
2018-07-08 00:00:00 22.8 4 Sudoeste 9 Noroeste 0 -- -- 77
2018-07-07 23:00:00 23.3 2 Oeste 6 Sudoeste 0 -- -- 79
2018-07-07 22:00:00 24.4 2 Nordeste 12 Oeste 0 -- -- 73
2018-07-07 21:00:00 24 7 Norte 15 Noroeste 0 -- -- 72
2018-07-07 20:00:00 24.8 7 Norte 16 Nordeste 0 -- -- 64
2018-07-07 19:00:00 25.6 3 Nordeste 12 Este 0 -- -- 67
2018-07-07 18:00:00 26 5 Sudeste 14 Sudeste 0 -- -- 64
2018-07-07 17:00:00 27 6 Sudeste 18 Sudeste 0 -- -- 52
2018-07-07 16:00:00 27.9 10 Sudeste 25 Sudeste 0 -- -- 45
2018-07-07 15:00:00 31.8 11 Sudeste 30 Sur 0 -- -- 40
2018-07-07 14:00:00 32.1 8 Sur 17 Nordeste 0 -- -- 38
2018-07-07 13:00:00 31.5 8 Norte 28 Nordeste 0 -- -- 37
2018-07-07 12:00:00 30.3 10 Nordeste 26 Nordeste 0 -- -- 37
2018-07-07 11:00:00 29.4 10 Norte 24 Nordeste 0 -- -- 40
2018-07-07 10:00:00 28.5 6 Norte 21 Noroeste 0 -- -- 42
2018-07-07 09:00:00 25 4 Oeste 11 Oeste 0 -- -- 59
2018-07-07 08:00:00 21.9 5 Noroeste 9 Noroeste 0 -- -- 69
2018-07-07 07:00:00 20.9 6 Oeste 10 Noroeste 0 -- -- 71
2018-07-07 06:00:00 21.3 4 Noroeste 10 Noroeste 0 -- -- 68
2018-07-07 05:00:00 22.4 4 Noroeste 13 Norte 0 -- -- 66
2018-07-07 04:00:00 22 2 Norte 10 Oeste 0 -- -- 68
2018-07-07 03:00:00 22.6 2 Noroeste 10 Norte 0 -- -- 67
2018-07-07 02:00:00 22.4 5 Norte 14 Norte 0 -- -- 63
2018-07-07 01:00:00 24.2 6 Norte 21 Norte 0 -- -- 54
2018-07-07 00:00:00 24.4 7 Nordeste 14 Nordeste 0 -- -- 52
2018-07-06 23:00:00 24.4 3 Este 11 Nordeste 0 -- -- 64
2018-07-06 22:00:00 24.8 0 Calma 9 Nordeste 0 -- -- 63
2018-07-06 21:00:00 25.4 5 Sudeste 10 Sudeste 0 -- -- 57
2018-07-06 20:00:00 26.2 7 Sudeste 15 Sudeste 0 -- -- 56
2018-07-06 19:00:00 27.5 5 Sudeste 19 Sur 0 -- -- 55
2018-07-06 18:00:00 27.6 8 Sur 23 Sudeste 0 -- -- 53
2018-07-06 17:00:00 30.8 5 Nordeste 22 Nordeste 0 -- -- 42
2018-07-06 16:00:00 30.5 8 Norte 23 Nordeste 0 -- -- 39
2018-07-06 15:00:00 29.7 10 Nordeste 27 Nordeste 0 -- -- 40
2018-07-06 14:00:00 28.9 12 Nordeste 28 Nordeste 0 -- -- 42
2018-07-06 13:00:00 28 14 Nordeste 32 Norte 0 -- -- 44
2018-07-06 12:00:00 27 13 Nordeste 31 Norte 0 -- -- 45
2018-07-06 11:00:00 25.6 16 Nordeste 34 Nordeste 0 -- -- 50
2018-07-06 10:00:00 24.4 14 Nordeste 35 Norte 0 -- -- 55
2018-07-06 09:00:00 22.7 14 Norte 43 Norte 0 -- -- 60
2018-07-06 08:00:00 21.4 14 Nordeste 35 Nordeste 0 -- -- 63
2018-07-06 07:00:00 21.2 15 Norte 31 Norte 0 -- -- 66
2018-07-06 06:00:00 21.4 13 Norte 31 Norte 0 -- -- 64
2018-07-06 05:00:00 21.4 10 Norte 32 Nordeste 0 -- -- 66
2018-07-06 04:00:00 21.2 13 Norte 29 Nordeste 0 -- -- 69
2018-07-06 03:00:00 20.1 5 Noroeste 13 Norte 0.2 -- -- 86
2018-07-06 02:00:00 20.5 8 Norte 22 Nordeste 0.2 -- -- 78
2018-07-06 01:00:00 21.5 5 Noroeste 13 Norte 0.4 -- -- 80
2018-07-06 00:00:00 22.5 3 Oeste 24 Nordeste 0.6 -- -- 75
2018-07-05 23:00:00 24.6 15 Norte 34 Nordeste 0 -- -- 54
2018-07-05 22:00:00 24.6 12 Norte 26 Nordeste 0 -- -- 53
2018-07-05 21:00:00 25.3 14 Norte 38 Nordeste 0 -- -- 52
2018-07-05 20:00:00 26.5 16 Norte 36 Nordeste 0 -- -- 51
2018-07-05 19:00:00 27.2 11 Nordeste 24 Nordeste 0 -- -- 50
2018-07-05 18:00:00 27.4 13 Norte 37 Norte 0 -- -- 50
2018-07-05 17:00:00 28.2 15 Norte 35 Norte 0 -- -- 45
2018-07-05 16:00:00 28.8 14 Nordeste 32 Nordeste 0 -- -- 43
2018-07-05 15:00:00 28.4 14 Norte 30 Nordeste 0 -- -- 44
2018-07-05 14:00:00 29.5 13 Nordeste 30 Norte 0 -- -- 44
2018-07-05 13:00:00 28.6 14 Norte 36 Nordeste 0 -- -- 45
2018-07-05 12:00:00 28 13 Norte 32 Nordeste 0 -- -- 46
2018-07-05 11:00:00 27.4 12 Norte 33 Nordeste 0 -- -- 47
2018-07-05 10:00:00 25.6 20 Norte 41 Norte 0 -- -- 50
2018-07-05 09:00:00 24.8 14 Nordeste 32 Norte 0 -- -- 53
2018-07-05 08:00:00 23.2 15 Norte 31 Nordeste 0 -- -- 58
2018-07-05 07:00:00 22.2 12 Nordeste 28 Norte 0 -- -- 61
2018-07-05 06:00:00 20.7 0 Calma 8 Noroeste 0 -- -- 67
2018-07-05 05:00:00 21.8 4 Norte 16 Noroeste 0 -- -- 61
2018-07-05 04:00:00 22.1 6 Norte 26 Noroeste 0 -- -- 62
2018-07-05 03:00:00 23 6 Norte 30 Nordeste 0 -- -- 57
2018-07-05 02:00:00 23.7 14 Nordeste 50 Nordeste 0 -- -- 54
2018-07-05 01:00:00 23.9 21 Norte 54 Norte 0 -- -- 53
2018-07-05 00:00:00 24 19 Nordeste 47 Nordeste 0 -- -- 55
2018-07-04 23:00:00 25.7 9 Nordeste 28 Este 0 -- -- 66
2018-07-04 22:00:00 26.6 8 Sudoeste 19 Sudoeste 0 -- -- 65
2018-07-04 21:00:00 28 8 Sudoeste 28 Sudoeste 0 -- -- 56
2018-07-04 20:00:00 30.1 14 Sudoeste 38 Sudoeste 0 -- -- 43
2018-07-04 19:00:00 31.6 18 Sudoeste 36 Sudoeste 0 -- -- 45
2018-07-04 18:00:00 32.7 16 Sur 34 Sur 0 -- -- 45
2018-07-04 17:00:00 34.1 14 Sudoeste 31 Sur 0 -- -- 31
2018-07-04 16:00:00 33.2 13 Sudoeste 33 Sudeste 0 -- -- 37
2018-07-04 15:00:00 30.2 11 Sudeste 26 Sudeste 0 -- -- 56
2018-07-04 14:00:00 30.4 11 Sur 27 Sur 0 -- -- 56
2018-07-04 13:00:00 30.4 11 Sudeste 23 Sur 0 -- -- 55
2018-07-04 12:00:00 30 9 Sur 16 Sur 0 -- -- 55
2018-07-04 11:00:00 29 6 Sur 13 Sudeste 0 -- -- 57
2018-07-04 10:00:00 27.4 5 Sur 9 Sur 0 -- -- 61
2018-07-04 09:00:00 25.4 3 Nordeste 6 Norte 0 -- -- 66
2018-07-04 08:00:00 22.8 3 Noroeste 6 Noroeste 0 -- -- 76
2018-07-04 07:00:00 20.9 4 Noroeste 6 Noroeste 0 -- -- 82
2018-07-04 06:00:00 21.8 0 Calma 6 Este 0 -- -- 80
2018-07-04 05:00:00 22 3 Norte 7 Noroeste 0 -- -- 79
2018-07-04 04:00:00 23.3 3 Oeste 10 Norte 0 -- -- 73
2018-07-04 03:00:00 24 4 Nordeste 10 Noroeste 0 -- -- 70
2018-07-04 02:00:00 24.7 4 Noroeste 9 Norte 0 -- -- 69
2018-07-04 01:00:00 25.4 4 Sur 17 Nordeste 0 -- -- 66
2018-07-04 00:00:00 25.8 3 Este 17 Nordeste 0 -- -- 66
2018-07-03 23:00:00 26.3 6 Nordeste 20 Nordeste 0 -- -- 64
2018-07-03 22:00:00 29 3 Sur 19 Oeste 0 -- -- 51
2018-07-03 21:00:00 30.3 9 Sur 19 Sudoeste 0 -- -- 45
2018-07-03 20:00:00 32 12 Sudoeste 31 Oeste 0 -- -- 43
2018-07-03 19:00:00 33.7 17 Sudoeste 33 Sudoeste 0 -- -- 37
2018-07-03 18:00:00 33.5 8 Sudoeste 30 Sudeste 0 -- -- 41
2018-07-03 17:00:00 31.3 12 Sudeste 30 Sudeste 0 -- -- 53
2018-07-03 16:00:00 32.5 12 Sur 30 Sudeste 0 -- -- 46
2018-07-03 15:00:00 31.6 13 Sudeste 32 Sudeste 0 -- -- 48
2018-07-03 14:00:00 31.9 12 Sur 24 Sudeste 0 -- -- 48
2018-07-03 13:00:00 31.6 10 Sudeste 20 Sudeste 0 -- -- 49
2018-07-03 12:00:00 30.8 7 Sudeste 17 Sudeste 0 -- -- 52
2018-07-03 11:00:00 29.5 9 Sur 15 Sur 0 -- -- 57
2018-07-03 10:00:00 28.2 5 Sudoeste 9 Oeste 0 -- -- 59
2018-07-03 09:00:00 25.8 3 Sudoeste 7 Este 0 -- -- 68
2018-07-03 08:00:00 23.2 0 Calma 6 Sudoeste 0 -- -- 80
2018-07-03 07:00:00 21.6 0 Calma 5 Sur 0 -- -- 84
2018-07-03 06:00:00 21.5 3 Oeste 6 Oeste 0 -- -- 85
2018-07-03 05:00:00 21.6 0 Calma 6 Oeste 0 -- -- 85
2018-07-03 04:00:00 22.4 2 Sudoeste 5 Noroeste 0 -- -- 85
2018-07-03 03:00:00 22.4 2 Noroeste 8 Oeste 0 -- -- 84
2018-07-03 02:00:00 23.2 0 Calma 8 Oeste 0 -- -- 81
2018-07-03 01:00:00 24.3 0 Calma 4 Nordeste 0 -- -- 79
2018-07-03 00:00:00 24.5 4 Nordeste 8 Norte 0 -- -- 79
2018-07-02 23:00:00 24.5 3 Oeste 7 Sudoeste 0 -- -- 78
2018-07-02 22:00:00 24.5 4 Sudoeste 8 Este 0 -- -- 78
2018-07-02 21:00:00 25.2 4 Sudeste 9 Nordeste 0 -- -- 76
2018-07-02 20:00:00 25.4 4 Sudeste 15 Sudeste 0 -- -- 76
2018-07-02 19:00:00 26.1 7 Sudeste 20 Sudeste 0 -- -- 72
2018-07-02 18:00:00 27.4 8 Sudeste 23 Sur 0 -- -- 65
2018-07-02 17:00:00 28.3 13 Sur 27 Sur 0 -- -- 61
2018-07-02 16:00:00 29.6 11 Sur 25 Sur 0 -- -- 59
2018-07-02 15:00:00 30.6 11 Sur 21 Sur 0 -- -- 56
2018-07-02 14:00:00 30 9 Sudoeste 20 Sur 0 -- -- 56
2018-07-02 13:00:00 29 10 Sudeste 23 Nordeste 0 -- -- 59
2018-07-02 12:00:00 28.8 9 Nordeste 25 Nordeste 0 -- -- 55
2018-07-02 11:00:00 27.7 10 Nordeste 26 Nordeste 0 -- -- 57
2018-07-02 10:00:00 26.7 4 Este 12 Sur 0 -- -- 65
2018-07-02 09:00:00 24.5 8 Sudoeste 13 Sudoeste 0 -- -- 72
2018-07-02 08:00:00 22.6 0 Calma 8 Este 0 -- -- 79
2018-07-02 07:00:00 21 5 Este 17 Nordeste 0 -- -- 85
2018-07-02 06:00:00 20.7 4 Nordeste 16 Norte 0 -- -- 88
2018-07-02 05:00:00 20 6 Nordeste 15 Nordeste 0 -- -- 90
2018-07-02 04:00:00 20.4 3 Sur 6 Noroeste 0 -- -- 87
2018-07-02 03:00:00 20.5 4 Noroeste 6 Oeste 0 -- -- 87
2018-07-02 02:00:00 21.2 0 Calma 6 Nordeste 0 -- -- 89
2018-07-02 01:00:00 22.3 4 Nordeste 8 Nordeste 0 -- -- 88
2018-07-02 00:00:00 22.8 2 Noroeste 4 Noroeste 0 -- -- 90
2018-07-01 23:00:00 23 3 Sudoeste 6 Sur 0 -- -- 91
2018-07-01 22:00:00 23.5 3 Sudeste 8 Sudeste 0 -- -- 88
2018-07-01 21:00:00 24.3 5 Sudeste 12 Sudeste 0 -- -- 80
2018-07-01 20:00:00 25.8 5 Sur 16 Sudeste 0 -- -- 69
2018-07-01 19:00:00 26.8 8 Sur 21 Sudeste 0 -- -- 61
2018-07-01 18:00:00 28.2 10 Sur 24 Sur 0 -- -- 55
2018-07-01 17:00:00 29.3 12 Sur 35 Sur 0 -- -- 49
2018-07-01 16:00:00 30.2 12 Sur 30 Sur 0 -- -- 40
2018-07-01 15:00:00 30.2 12 Sudeste 29 Sudeste 0 -- -- 45
2018-07-01 14:00:00 30.9 10 Sur 23 Sudeste 0 -- -- 46
2018-07-01 13:00:00 29.8 8 Sudeste 20 Sur 0 -- -- 52
2018-07-01 12:00:00 29.1 4 Este 17 Sur 0 -- -- 47
2018-07-01 11:00:00 27.3 4 Nordeste 10 Nordeste 0 -- -- 49
2018-07-01 10:00:00 25.4 3 Sudeste 6 Norte 0 -- -- 59
2018-07-01 09:00:00 22.7 3 Sur 6 Oeste 0 -- -- 64
2018-07-01 08:00:00 19.4 4 Oeste 7 Oeste 0 -- -- 76
2018-07-01 07:00:00 18.2 4 Este 8 Noroeste 0 -- -- 78
2018-07-01 06:00:00 17.7 4 Noroeste 10 Este 0 -- -- 78
2018-07-01 05:00:00 18.6 3 Nordeste 8 Nordeste 0 -- -- 78
2018-07-01 04:00:00 18.7 2 Noroeste 6 Oeste 0 -- -- 74
2018-07-01 03:00:00 19.5 3 Oeste 5 Noroeste 0 -- -- 71
2018-07-01 02:00:00 20.7 3 Noroeste 6 Noroeste 0 -- -- 74
2018-07-01 01:00:00 22 3 Norte 9 Norte 0 -- -- 74
2018-07-01 00:00:00 22.6 2 Nordeste 8 Sudeste 0 -- -- 76
2018-06-30 23:00:00 22.9 3 Sur 10 Sur 0 -- -- 69
2018-06-30 22:00:00 23.9 5 Sur 12 Sur 0 -- -- 70
2018-06-30 21:00:00 26 5 Sudeste 15 Sudoeste 0 -- -- 60
2018-06-30 20:00:00 28.9 8 Sur 24 Sur 0 -- -- 39
2018-06-30 19:00:00 30.2 13 Sur 28 Sur 0 -- -- 37
2018-06-30 18:00:00 31.2 12 Sur 28 Sur 0 -- -- 34
2018-06-30 17:00:00 30.7 11 Sudeste 29 Sur 0 -- -- 40
2018-06-30 16:00:00 30.7 12 Sudeste 32 Sudeste 0 -- -- 45
2018-06-30 15:00:00 30.1 14 Sur 32 Sudeste 0 -- -- 45
2018-06-30 14:00:00 30.6 12 Sur 30 Sudeste 0 -- -- 42
2018-06-30 13:00:00 28.7 11 Sudeste 24 Sudeste 0 -- -- 51
2018-06-30 12:00:00 27.5 9 Sudeste 21 Sudeste 0 -- -- 63
2018-06-30 11:00:00 27.4 7 Sudoeste 12 Sur 0 -- -- 50
2018-06-30 10:00:00 25.1 6 Sudoeste 14 Sur 0 -- -- 64
2018-06-30 09:00:00 22.8 5 Sur 8 Sudeste 0 -- -- 75
2018-06-30 08:00:00 20.9 3 Este 10 Nordeste 0 -- -- 81
2018-06-30 07:00:00 19.1 0 Calma 4 Noroeste 0 -- -- 87
2018-06-30 06:00:00 18.8 0 Calma 8 Sudeste 0 -- -- 87
2018-06-30 05:00:00 20.1 0 Calma 5 Noroeste 0 -- -- 83
2018-06-30 04:00:00 19.9 0 Calma 4 Sur 0 -- -- 84
2018-06-30 03:00:00 20.7 0 Calma 6 Oeste 0 -- -- 82
2018-06-30 02:00:00 20.9 3 Sudoeste 6 Sur 0 -- -- 81
2018-06-30 01:00:00 22.1 4 Este 8 Este 0 -- -- 77
2018-06-30 00:00:00 22.5 0 Calma 9 Este 0 -- -- 75
2018-06-29 23:00:00 22.9 6 Este 12 Este 0 -- -- 77
2018-06-29 22:00:00 23.2 0 Calma 10 Sudeste 0 -- -- 78
2018-06-29 21:00:00 24.4 5 Sudeste 15 Sudeste 0 -- -- 72
2018-06-29 20:00:00 25.9 7 Sudeste 19 Sudeste 0 -- -- 66
2018-06-29 19:00:00 26.8 10 Sudeste 23 Sudeste 0 -- -- 63
2018-06-29 18:00:00 27.4 10 Sudeste 32 Sudeste 0 -- -- 65
2018-06-29 17:00:00 27.7 12 Sudeste 28 Sudeste 0 -- -- 66
2018-06-29 16:00:00 28.8 13 Sudeste 28 Sudeste 0 -- -- 63
2018-06-29 15:00:00 27.9 15 Sudeste 28 Sudeste 0 -- -- 62
2018-06-29 14:00:00 28.3 12 Sur 26 Sur 0 -- -- 56
2018-06-29 13:00:00 28.9 10 Sur 18 Sur 0 -- -- 52
2018-06-29 12:00:00 28.3 8 Sudeste 17 Este 0 -- -- 53
2018-06-29 11:00:00 27.4 6 Sudeste 16 Sudeste 0 -- -- 56
2018-06-29 10:00:00 25.9 4 Sudeste 9 Sudeste 0 -- -- 62
2018-06-29 09:00:00 22.7 3 Sudoeste 10 Oeste 0 -- -- 76
2018-06-29 08:00:00 21.1 2 Noroeste 8 Noroeste 0 -- -- 79
2018-06-29 07:00:00 19.6 4 Noroeste 7 Noroeste 0 -- -- 85
2018-06-29 06:00:00 20.1 3 Nordeste 9 Este 0 -- -- 86
2018-06-29 05:00:00 19.8 4 Noroeste 10 Noroeste 0 -- -- 87
2018-06-29 04:00:00 20.5 4 Oeste 9 Noroeste 0 -- -- 84
2018-06-29 03:00:00 21.3 0 Calma 11 Nordeste 0 -- -- 85
2018-06-29 02:00:00 21.5 2 Norte 12 Nordeste 0 -- -- 84
2018-06-29 01:00:00 21.8 3 Nordeste 10 Oeste 0 -- -- 85
2018-06-29 00:00:00 22 4 Noroeste 10 Noroeste 0 -- -- 84
2018-06-28 23:00:00 22.4 5 Oeste 13 Sudoeste 0 -- -- 83
2018-06-28 22:00:00 23.2 0 Calma 9 Sudoeste 0 -- -- 78
2018-06-28 21:00:00 23.4 5 Sudoeste 12 Noroeste 0 -- -- 77
2018-06-28 20:00:00 24.3 4 Sudoeste 13 Sudoeste 0 -- -- 72
2018-06-28 19:00:00 25.3 6 Sudoeste 13 Sudoeste 0 -- -- 69
2018-06-28 18:00:00 25.7 3 Sudoeste 17 Oeste 0 -- -- 61
2018-06-28 17:00:00 25.9 10 Sudoeste 21 Sur 0 -- -- 62
2018-06-28 16:00:00 26.1 12 Sur 23 Sur 0 -- -- 62
2018-06-28 15:00:00 28.5 13 Sur 28 Sur 0 -- -- 56
2018-06-28 14:00:00 29.2 10 Sudeste 24 Sudeste 0 -- -- 58
2018-06-28 13:00:00 30.5 9 Sudeste 19 Sudeste 0 -- -- 52
2018-06-28 12:00:00 30.8 6 Sur 20 Este 0 -- -- 52
2018-06-28 11:00:00 29.3 6 Norte 24 Norte 0 -- -- 54
2018-06-28 10:00:00 27.8 10 Norte 24 Norte 0 -- -- 58
2018-06-28 09:00:00 26.5 9 Nordeste 25 Nordeste 0 -- -- 62
2018-06-28 08:00:00 25.1 4 Norte 19 Nordeste 0 -- -- 67
2018-06-28 07:00:00 23.3 4 Noroeste 12 Noroeste 0 -- -- 71
2018-06-28 06:00:00 22.1 6 Noroeste 11 Noroeste 0 -- -- 72
2018-06-28 05:00:00 21.7 0 Calma 14 Oeste 0 -- -- 73
2018-06-28 04:00:00 22.5 5 Oeste 12 Noroeste 0 -- -- 70
2018-06-28 03:00:00 23.7 5 Noroeste 18 Norte 0 -- -- 66
2018-06-28 02:00:00 25 5 Norte 13 Nordeste 0 -- -- 63
2018-06-28 01:00:00 24.3 5 Oeste 10 Norte 0 -- -- 66
2018-06-28 00:00:00 25.9 4 Noroeste 9 Noroeste 0 -- -- 60
2018-06-27 23:00:00 27 4 Oeste 12 Este 0 -- -- 57
2018-06-27 22:00:00 28.2 2 Sur 14 Nordeste 0 -- -- 52
2018-06-27 21:00:00 28.6 3 Norte 9 Este 0 -- -- 51
2018-06-27 20:00:00 28.2 3 Sudeste 8 Sudeste 0 -- -- 59
2018-06-27 19:00:00 29 5 Este 13 Este 0 -- -- 57
2018-06-27 18:00:00 29.7 7 Sudeste 18 Sudeste 0 -- -- 55
2018-06-27 17:00:00 29.6 8 Sudeste 23 Sudeste 0 -- -- 50
2018-06-27 16:00:00 29.5 12 Sudeste 27 Sur 0 -- -- 44
2018-06-27 15:00:00 29.8 10 Sudeste 22 Sudeste 0 -- -- 44
2018-06-27 14:00:00 29.8 10 Sur 22 Sudeste 0 -- -- 41
2018-06-27 13:00:00 30.4 10 Sur 22 Sudeste 0 -- -- 39
2018-06-27 12:00:00 30.8 8 Sudeste 22 Este 0 -- -- 40
2018-06-27 11:00:00 30.5 5 Sur 15 Sudoeste 0 -- -- 38
2018-06-27 10:00:00 28.7 3 Sur 8 Sudoeste 0 -- -- 42
2018-06-27 09:00:00 25 2 Sur 5 Sudeste 0 -- -- 54
2018-06-27 08:00:00 20.7 0 Calma 7 Noroeste 0 -- -- 63
2018-06-27 07:00:00 18.5 4 Noroeste 8 Norte 0 -- -- 69
2018-06-27 06:00:00 18.2 0 Calma 7 Oeste 0 -- -- 73
2018-06-27 05:00:00 18.7 0 Calma 5 Sudoeste 0 -- -- 75
2018-06-27 04:00:00 19.7 3 Noroeste 7 Noroeste 0 -- -- 72
2018-06-27 03:00:00 20.2 4 Noroeste 6 Oeste 0 -- -- 72
2018-06-27 02:00:00 20.3 3 Oeste 5 Oeste 0 -- -- 72
2018-06-27 01:00:00 20.8 2 Sudoeste 4 Sudoeste 0 -- -- 73
2018-06-27 00:00:00 22.4 0 Calma 6 Noroeste 0 -- -- 69
2018-06-26 23:00:00 22.7 4 Noroeste 6 Noroeste 0 -- -- 68
2018-06-26 22:00:00 22.9 4 Sudeste 6 Sudeste 0 -- -- 70
2018-06-26 21:00:00 23.7 4 Sudoeste 11 Sur 0 -- -- 66
2018-06-26 20:00:00 25.4 5 Sur 15 Sudeste 0 -- -- 60
2018-06-26 19:00:00 27.1 8 Sur 16 Sudeste 0 -- -- 53
2018-06-26 18:00:00 27.6 8 Sur 20 Sur 0 -- -- 51
2018-06-26 17:00:00 27.3 10 Sur 23 Sur 0 -- -- 50
2018-06-26 16:00:00 28.3 10 Sur 27 Sur 0 -- -- 47
2018-06-26 15:00:00 28.5 10 Sur 24 Sur 0 -- -- 45
2018-06-26 14:00:00 28.4 9 Sur 20 Sur 0 -- -- 45
2018-06-26 13:00:00 28.3 9 Sur 21 Sudeste 0 -- -- 47
2018-06-26 12:00:00 27.8 7 Sudeste 18 Sudeste 0 -- -- 43
2018-06-26 11:00:00 26.8 10 Sudeste 21 Este 0 -- -- 45
2018-06-26 10:00:00 26.2 9 Sudeste 21 Sur 0 -- -- 46
2018-06-26 09:00:00 24.9 5 Norte 13 Nordeste 0 -- -- 49
2018-06-26 08:00:00 23.2 5 Norte 13 Nordeste 0 -- -- 54
2018-06-26 07:00:00 21.5 5 Nordeste 13 Nordeste 0 -- -- 58
2018-06-26 06:00:00 21.4 5 Norte 14 Nordeste 0 -- -- 58
2018-06-26 05:00:00 19.3 0 Calma 6 Noroeste 0 -- -- 67
2018-06-26 04:00:00 19.2 3 Noroeste 5 Oeste 0 -- -- 70
2018-06-26 03:00:00 19.3 3 Sudoeste 6 Sur 0 -- -- 72
2018-06-26 02:00:00 20.5 0 Calma 8 Oeste 0 -- -- 68
2018-06-26 01:00:00 21.1 4 Noroeste 9 Noroeste 0 -- -- 65
2018-06-26 00:00:00 22.9 0 Calma 9 Nordeste 0 -- -- 60
2018-06-25 23:00:00 23.9 5 Nordeste 9 Este 0 -- -- 58
2018-06-25 22:00:00 24.6 4 Nordeste 8 Este 0 -- -- 59
2018-06-25 21:00:00 26.4 5 Sur 14 Sur 0 -- -- 47
2018-06-25 20:00:00 27.5 5 Sur 19 Sur 0 -- -- 43
2018-06-25 19:00:00 27.8 7 Sudeste 24 Sudeste 0 -- -- 44
2018-06-25 18:00:00 27 12 Sudeste 24 Sudeste 0 -- -- 50
2018-06-25 17:00:00 28.2 12 Sudeste 23 Sudeste 0 -- -- 46
2018-06-25 16:00:00 29.2 8 Sur 23 Sur 0 -- -- 42
2018-06-25 15:00:00 27.8 10 Sur 24 Sur 0 -- -- 46
2018-06-25 14:00:00 27.3 13 Sudeste 28 Sudeste 0 -- -- 50
2018-06-25 13:00:00 29.2 9 Sudeste 22 Sur 0 -- -- 43
2018-06-25 12:00:00 28.4 6 Sudoeste 15 Sudoeste 0 -- -- 42
2018-06-25 11:00:00 26.9 7 Oeste 15 Sudoeste 0 -- -- 45
2018-06-25 10:00:00 25.3 4 Oeste 11 Sudoeste 0 -- -- 49
2018-06-25 09:00:00 23.8 4 Sudoeste 9 Sudoeste 0 -- -- 53
2018-06-25 08:00:00 21.4 4 Noroeste 8 Noroeste 0 -- -- 63
2018-06-25 07:00:00 19.7 2 Oeste 12 Nordeste 0 -- -- 66
2018-06-25 06:00:00 18.3 3 Este 10 Sudeste 0 -- -- 72
2018-06-25 05:00:00 19.1 0 Calma 9 Sur 0 -- -- 70
2018-06-25 04:00:00 19.6 2 Oeste 8 Oeste 0 -- -- 67
2018-06-25 03:00:00 20 2 Norte 9 Oeste 0 -- -- 66
2018-06-25 02:00:00 20.3 3 Sudeste 6 Nordeste 0 -- -- 68
2018-06-25 01:00:00 20.4 0 Calma 10 Noroeste 0 -- -- 66
2018-06-25 00:00:00 22.2 2 Noroeste 9 Oeste 0 -- -- 59
2018-06-24 23:00:00 22.8 2 Nordeste 8 Nordeste 0 -- -- 53
2018-06-24 22:00:00 23.3 2 Sudeste 6 Este 0 -- -- 54
2018-06-24 21:00:00 23.6 4 Sur 12 Este 0 -- -- 53
2018-06-24 20:00:00 25.3 6 Sudeste 14 Sudeste 0 -- -- 48
2018-06-24 19:00:00 26 8 Sur 18 Sudeste 0 -- -- 46
2018-06-24 18:00:00 26.2 9 Sudeste 20 Sudeste 0 -- -- 47
2018-06-24 17:00:00 26.7 9 Sudeste 27 Sudeste 0 -- -- 49
2018-06-24 16:00:00 27.5 12 Sudeste 25 Sudeste 0 -- -- 44
2018-06-24 15:00:00 27.3 12 Sur 29 Sudeste 0 -- -- 44
2018-06-24 14:00:00 27.4 11 Sur 26 Sur 0 -- -- 43
2018-06-24 13:00:00 28.6 9 Sur 21 Sudeste 0 -- -- 43
2018-06-24 12:00:00 28.1 5 Oeste 14 Sudoeste 0 -- -- 40
2018-06-24 11:00:00 26.8 4 Sudeste 10 Sudoeste 0 -- -- 49
2018-06-24 10:00:00 25 3 Sur 8 Sudeste 0 -- -- 54
2018-06-24 09:00:00 21.9 2 Sudeste 5 Sur 0 -- -- 56
2018-06-24 08:00:00 18.6 0 Calma 5 Noroeste 0 -- -- 64
2018-06-24 07:00:00 16.8 3 Sudoeste 5 Sudoeste 0 -- -- 70
2018-06-24 06:00:00 17.2 3 Sur 6 Sur 0 -- -- 68
2018-06-24 05:00:00 17.2 3 Sudoeste 8 Noroeste 0 -- -- 67
2018-06-24 04:00:00 17.9 3 Noroeste 9 Oeste 0 -- -- 64
2018-06-24 03:00:00 18.1 2 Noroeste 8 Sur 0 -- -- 65
2018-06-24 02:00:00 18.7 3 Noroeste 5 Oeste 0 -- -- 63
2018-06-24 01:00:00 19.2 4 Oeste 8 Noroeste 0 -- -- 62
2018-06-24 00:00:00 21.7 0 Calma 5 Este 0 -- -- 54
2018-06-23 23:00:00 22.2 0 Calma 6 Sur 0 -- -- 54
2018-06-23 22:00:00 23.2 4 Sudoeste 10 Sudoeste 0 -- -- 50
2018-06-23 21:00:00 24.3 7 Sudoeste 16 Sudoeste 0 -- -- 47
2018-06-23 20:00:00 27.3 6 Sur 16 Sudoeste 0 -- -- 36
2018-06-23 19:00:00 28.7 8 Sur 21 Sur 0 -- -- 34
2018-06-23 18:00:00 29 9 Sur 21 Sur 0 -- -- 30
2018-06-23 17:00:00 28.7 10 Sudeste 18 Sudeste 0 -- -- 29
2018-06-23 16:00:00 28.5 8 Sudeste 21 Sur 0 -- -- 29
2018-06-23 15:00:00 27.8 10 Sudeste 23 Este 0 -- -- 32
2018-06-23 14:00:00 27.5 10 Sudeste 22 Sudeste 0 -- -- 34
2018-06-23 13:00:00 27.5 9 Sudeste 18 Este 0 -- -- 35
2018-06-23 12:00:00 26.9 7 Sudeste 17 Sudeste 0 -- -- 36
2018-06-23 11:00:00 26.3 9 Sudeste 19 Sur 0 -- -- 39
2018-06-23 10:00:00 26 6 Sudeste 21 Nordeste 0 -- -- 45
2018-06-23 09:00:00 24.8 7 Nordeste 15 Nordeste 0 -- -- 45
2018-06-23 08:00:00 22.7 3 Sudeste 14 Norte 0 -- -- 55
2018-06-23 07:00:00 21.6 7 Nordeste 16 Nordeste 0 -- -- 54
2018-06-23 06:00:00 22.1 4 Nordeste 18 Nordeste 0 -- -- 50
2018-06-23 05:00:00 22.6 10 Nordeste 20 Nordeste 0 -- -- 49
2018-06-23 04:00:00 23.1 7 Nordeste 21 Nordeste 0 -- -- 48
2018-06-23 03:00:00 23.6 10 Nordeste 28 Nordeste 0 -- -- 47
2018-06-23 02:00:00 24.4 10 Nordeste 29 Norte 0 -- -- 45
2018-06-23 01:00:00 24.7 8 Nordeste 21 Nordeste 0 -- -- 44
2018-06-23 00:00:00 25.1 12 Nordeste 33 Norte 0 -- -- 45
2018-06-22 23:00:00 26 13 Nordeste 32 Nordeste 0 -- -- 43
2018-06-22 22:00:00 27.1 13 Nordeste 39 Este 0 -- -- 46
2018-06-22 21:00:00 27.9 17 Nordeste 34 Norte 0 -- -- 48
2018-06-22 20:00:00 28.8 12 Nordeste 38 Nordeste 0 -- -- 48
2018-06-22 19:00:00 29.3 9 Este 30 Nordeste 0 -- -- 52
2018-06-22 18:00:00 30.3 13 Nordeste 36 Norte 0 -- -- 45
2018-06-22 17:00:00 30.4 15 Nordeste 32 Nordeste 0 -- -- 46
2018-06-22 16:00:00 31 12 Nordeste 37 Norte 0 -- -- 45
2018-06-22 15:00:00 30.4 15 Nordeste 39 Nordeste 0 -- -- 49
2018-06-22 14:00:00 30.3 23 Nordeste 43 Nordeste 0 -- -- 48
2018-06-22 13:00:00 29.7 21 Nordeste 43 Nordeste 0 -- -- 50
2018-06-22 12:00:00 29.7 17 Nordeste 35 Norte 0 -- -- 51
2018-06-22 11:00:00 29.5 13 Norte 34 Norte 0 -- -- 53
2018-06-22 10:00:00 27.9 15 Nordeste 33 Nordeste 0 -- -- 59
2018-06-22 09:00:00 26.1 15 Norte 33 Nordeste 0 -- -- 64
2018-06-22 08:00:00 23.7 3 Sudoeste 15 Nordeste 0 -- -- 70
2018-06-22 07:00:00 23.8 4 Norte 22 Nordeste 0 -- -- 72
2018-06-22 06:00:00 25.3 9 Nordeste 24 Nordeste 0 -- -- 68
2018-06-22 05:00:00 25.7 9 Nordeste 32 Nordeste 0 -- -- 69
2018-06-22 04:00:00 26.6 13 Nordeste 32 Norte 0 -- -- 63
2018-06-22 03:00:00 26.7 12 Nordeste 22 Nordeste 0 -- -- 63
2018-06-22 02:00:00 27.1 10 Norte 19 Nordeste 0 -- -- 62
2018-06-22 01:00:00 27.6 10 Norte 20 Nordeste 0 -- -- 59
2018-06-22 00:00:00 27 5 Noroeste 15 Nordeste 0 -- -- 59
2018-06-21 23:00:00 28.3 4 Nordeste 13 Nordeste 0 -- -- 57
2018-06-21 22:00:00 29.4 6 Nordeste 13 Nordeste 0 -- -- 52
2018-06-21 21:00:00 29.7 3 Sur 8 Sur 0 -- -- 50
2018-06-21 20:00:00 31 6 Sur 10 Sur 0 -- -- 46
2018-06-21 19:00:00 31.1 5 Sur 13 Sur 0 -- -- 47
2018-06-21 18:00:00 31.1 8 Sudeste 15 Sudeste 0 -- -- 46
2018-06-21 17:00:00 31 8 Sudeste 15 Sudeste 0 -- -- 46
2018-06-21 16:00:00 31.6 8 Sudeste 21 Sur 0 -- -- 42
2018-06-21 15:00:00 31.2 9 Sur 22 Sur 0 -- -- 43
2018-06-21 14:00:00 32 8 Sur 21 Sudeste 0 -- -- 38
2018-06-21 13:00:00 31.3 7 Sudeste 15 Sur 0 -- -- 41
2018-06-21 12:00:00 30.6 5 Sur 13 Sur 0 -- -- 44
2018-06-21 11:00:00 29 5 Sudeste 9 Sur 0 -- -- 46
2018-06-21 10:00:00 26.8 3 Sudeste 7 Este 0 -- -- 50
2018-06-21 09:00:00 23.7 0 Calma 4 Sur 0 -- -- 62
2018-06-21 08:00:00 20.5 2 Sudoeste 4 Sudoeste 0 -- -- 75
2018-06-21 07:00:00 18.2 3 Sudeste 6 Oeste 0 -- -- 81
2018-06-21 06:00:00 18.4 2 Sudoeste 6 Norte 0 -- -- 80
2018-06-21 05:00:00 18.7 4 Noroeste 6 Noroeste 0 -- -- 79
2018-06-21 04:00:00 19.1 3 Noroeste 6 Noroeste 0 -- -- 78
2018-06-21 03:00:00 20.1 3 Noroeste 5 Noroeste 0 -- -- 75
2018-06-21 02:00:00 21.3 0 Calma 6 Noroeste 0 -- -- 71
2018-06-21 01:00:00 21.6 4 Noroeste 8 Noroeste 0 -- -- 71
2018-06-21 00:00:00 22.9 2 Este 7 Nordeste 0 -- -- 66
2018-06-20 23:00:00 22.9 2 Sudeste 11 Sudeste 0 -- -- 71
2018-06-20 22:00:00 23.7 3 Sudeste 12 Sudeste 0 -- -- 66
2018-06-20 21:00:00 25.6 4 Este 14 Este 0 -- -- 55
2018-06-20 20:00:00 27.1 7 Sudeste 17 Sudeste 0 -- -- 54
2018-06-20 19:00:00 28.6 7 Sudeste 19 Sudeste 0 -- -- 54
2018-06-20 18:00:00 29.3 9 Sudeste 26 Sur 0 -- -- 48
2018-06-20 17:00:00 30.3 11 Sudeste 23 Sur 0 -- -- 45
2018-06-20 16:00:00 30.2 10 Sudeste 24 Sudeste 0 -- -- 43
2018-06-20 15:00:00 29.9 10 Sudeste 23 Sudeste 0 -- -- 49
2018-06-20 14:00:00 30.3 10 Sudeste 25 Sudeste 0 -- -- 47
2018-06-20 13:00:00 30.1 9 Sur 19 Sur 0 -- -- 47
2018-06-20 12:00:00 29.9 9 Sur 18 Sur 0 -- -- 47
2018-06-20 11:00:00 29.4 6 Sudeste 16 Sudeste 0 -- -- 47
2018-06-20 10:00:00 27.7 2 Sur 6 Sudoeste 0 -- -- 52
2018-06-20 09:00:00 24.7 0 Calma -- -- 0 -- -- 63
2018-06-20 08:00:00 20.7 0 Calma 5 Oeste 0 -- -- 73
2018-06-20 07:00:00 18.8 0 Calma 5 Noroeste 0 -- -- 78
2018-06-20 06:00:00 18.8 3 Noroeste 5 Noroeste 0 -- -- 78
2018-06-20 05:00:00 19.3 3 Noroeste 6 Oeste 0 -- -- 76
2018-06-20 04:00:00 20 0 Calma 6 Norte 0 -- -- 74
2018-06-20 03:00:00 20.6 3 Noroeste 7 Noroeste 0 -- -- 72
2018-06-20 02:00:00 21.8 3 Noroeste 8 Nordeste 0 -- -- 69
2018-06-20 01:00:00 22.5 5 Norte 10 Nordeste 0 -- -- 65
2018-06-20 00:00:00 23.4 0 Calma 9 Oeste 0 -- -- 64
2018-06-19 23:00:00 25.1 4 Noroeste 10 Oeste 0 -- -- 57
2018-06-19 22:00:00 26.6 4 Oeste 8 Sudoeste 0 -- -- 51
2018-06-19 21:00:00 28.4 5 Sudeste 15 Este 0 -- -- 46
2018-06-19 20:00:00 30.1 7 Este 19 Este 0 -- -- 40
2018-06-19 19:00:00 31.2 8 Este 21 Nordeste 0 -- -- 38
2018-06-19 18:00:00 31.5 6 Sudeste 19 Este 0 -- -- 38
2018-06-19 17:00:00 31.5 8 Este 19 Este 0 -- -- 38
2018-06-19 16:00:00 31 7 Este 23 Sudeste 0 -- -- 39
2018-06-19 15:00:00 30.9 5 Nordeste 22 Este 0 -- -- 39
2018-06-19 14:00:00 30.5 7 Nordeste 24 Norte 0 -- -- 38
2018-06-19 13:00:00 29.3 12 Norte 32 Nordeste 0 -- -- 40
2018-06-19 12:00:00 28.3 13 Nordeste 33 Nordeste 0 -- -- 42
2018-06-19 11:00:00 27.6 17 Nordeste 36 Norte 0 -- -- 41
2018-06-19 10:00:00 26.2 11 Norte 33 Norte 0 -- -- 48
2018-06-19 09:00:00 24.4 12 Norte 29 Nordeste 0 -- -- 54
2018-06-19 08:00:00 22.9 9 Norte 31 Norte 0 -- -- 59
2018-06-19 07:00:00 21.2 13 Norte 36 Norte 0 -- -- 65
2018-06-19 06:00:00 21 16 Nordeste 40 Norte 0 -- -- 68
2018-06-19 05:00:00 21.4 19 Nordeste 45 Nordeste 0 -- -- 66
2018-06-19 04:00:00 21.5 18 Norte 39 Norte 0 -- -- 65
2018-06-19 03:00:00 21.8 16 Norte 43 Norte 0 -- -- 62
2018-06-19 02:00:00 22.1 18 Nordeste 45 Nordeste 0 -- -- 61
2018-06-19 01:00:00 22.2 21 Nordeste 55 Nordeste 0 -- -- 62
2018-06-19 00:00:00 22.4 22 Nordeste 45 Norte 0 -- -- 61
2018-06-18 23:00:00 22.9 23 Nordeste 52 Nordeste 0 -- -- 60
2018-06-18 22:00:00 23.6 22 Nordeste 43 Nordeste 0 -- -- 56
2018-06-18 21:00:00 25 14 Nordeste 39 Nordeste 0 -- -- 51
2018-06-18 20:00:00 26.5 13 Nordeste 44 Nordeste 0 -- -- 45
2018-06-18 19:00:00 27.8 15 Nordeste 36 Norte 0 -- -- 42
2018-06-18 18:00:00 28.5 16 Nordeste 42 Nordeste 0 -- -- 43
2018-06-18 17:00:00 29.5 17 Nordeste 45 Norte 0 -- -- 41
2018-06-18 16:00:00 29.4 17 Nordeste 46 Nordeste 0 -- -- 40
2018-06-18 15:00:00 28.9 18 Nordeste 48 Nordeste 0 -- -- 43
2018-06-18 14:00:00 28.3 16 Nordeste 42 Nordeste 0 -- -- 43
2018-06-18 13:00:00 27.6 18 Nordeste 48 Nordeste 0 -- -- 44
2018-06-18 12:00:00 26.6 18 Nordeste 42 Nordeste 0 -- -- 42
2018-06-18 11:00:00 25.3 14 Norte 39 Nordeste 0 -- -- 43
2018-06-18 10:00:00 23.9 10 Nordeste 28 Norte 0 -- -- 44
2018-06-18 09:00:00 21.9 9 Norte 24 Nordeste 0 -- -- 56
2018-06-18 08:00:00 20.2 8 Norte 22 Nordeste 0 -- -- 61
2018-06-18 07:00:00 18.7 4 Noroeste 21 Nordeste 0 -- -- 66
2018-06-18 06:00:00 19.4 8 Norte 23 Nordeste 0 -- -- 62
2018-06-18 05:00:00 20.1 9 Norte 25 Norte 0 -- -- 59
2018-06-18 04:00:00 19.8 6 Norte 14 Nordeste 0 -- -- 62
2018-06-18 03:00:00 19.8 4 Noroeste 28 Norte 0 -- -- 57
2018-06-18 02:00:00 20.9 7 Norte 19 Nordeste 0 -- -- 52
2018-06-18 01:00:00 21.3 11 Nordeste 37 Nordeste 0 -- -- 52
2018-06-18 00:00:00 21.7 16 Nordeste 41 Norte 0 -- -- 51
2018-06-17 23:00:00 21.8 17 Nordeste 45 Nordeste 0 -- -- 52
2018-06-17 22:00:00 21.8 17 Nordeste 42 Nordeste 0 -- -- 58
2018-06-17 21:00:00 22.8 15 Nordeste 34 Nordeste 0 -- -- 56
2018-06-17 20:00:00 23.4 10 Nordeste 31 Nordeste 0 -- -- 54
2018-06-17 19:00:00 24.2 16 Nordeste 38 Nordeste 0 -- -- 53
2018-06-17 18:00:00 24.9 15 Nordeste 44 Norte 0 -- -- 52
2018-06-17 17:00:00 25.1 21 Nordeste 42 Nordeste 0 -- -- 49
2018-06-17 16:00:00 27.1 18 Nordeste 38 Nordeste 0 -- -- 44
2018-06-17 15:00:00 27 12 Norte 28 Nordeste 0 -- -- 44
2018-06-17 14:00:00 27.1 10 Norte 35 Norte 0 -- -- 41
2018-06-17 13:00:00 26.2 9 Nordeste 22 Nordeste 0 -- -- 42
2018-06-17 12:00:00 25 10 Nordeste 29 Nordeste 0 -- -- 47
2018-06-17 11:00:00 23.2 17 Nordeste 33 Nordeste 0 -- -- 50
2018-06-17 10:00:00 22.1 20 Nordeste 35 Nordeste 0 -- -- 54
2018-06-17 09:00:00 21.2 16 Nordeste 44 Nordeste 0 -- -- 57
2018-06-17 08:00:00 19.8 14 Nordeste 32 Norte 0 -- -- 62
2018-06-17 07:00:00 19 17 Nordeste 36 Nordeste 0 -- -- 64
2018-06-17 06:00:00 19 17 Norte 34 Norte 0 -- -- 64
2018-06-17 05:00:00 19.4 14 Nordeste 30 Nordeste 0 -- -- 61
2018-06-17 04:00:00 19.9 13 Nordeste 26 Nordeste 0 -- -- 58
2018-06-17 03:00:00 20 12 Nordeste 28 Norte 0 -- -- 58
2018-06-17 02:00:00 20.3 11 Nordeste 26 Norte 0 -- -- 57
2018-06-17 01:00:00 20.6 12 Nordeste 35 Nordeste 0 -- -- 56
2018-06-17 00:00:00 20.8 18 Nordeste 36 Norte 0 -- -- 58